createdAt,value
2022-09-30T00:01:51.914Z,9.50
2022-09-30T00:04:25.067Z,8.30
2022-09-30T00:06:52.538Z,8.30
2022-09-30T00:09:19.574Z,8.30
2022-09-30T00:11:46.864Z,8.60
2022-09-30T00:14:16.141Z,8.20
2022-09-30T00:16:43.418Z,10.30
2022-09-30T00:19:10.169Z,8.20
2022-09-30T00:21:37.014Z,9.20
2022-09-30T00:24:04.472Z,8.10
2022-09-30T00:26:31.520Z,8.10
2022-09-30T00:28:59.186Z,8.20
2022-09-30T00:31:27.012Z,9.00
2022-09-30T00:34:09.426Z,8.20
2022-09-30T00:36:38.170Z,8.20
2022-09-30T00:39:05.908Z,8.50
2022-09-30T00:41:33.063Z,8.40
2022-09-30T00:43:59.726Z,8.20
2022-09-30T00:46:39.761Z,8.30
2022-09-30T00:49:14.067Z,8.30
2022-09-30T00:51:43.641Z,8.30
2022-09-30T00:54:12.259Z,9.50
2022-09-30T00:56:48.932Z,10.50
2022-09-30T00:59:27.141Z,8.30
2022-09-30T01:01:54.066Z,8.30
2022-09-30T01:04:22.305Z,8.30
2022-09-30T01:06:49.670Z,8.30
2022-09-30T01:09:16.958Z,8.30
2022-09-30T01:11:43.763Z,8.40
2022-09-30T01:14:13.216Z,8.40
2022-09-30T01:16:57.777Z,8.40
2022-09-30T01:19:28.547Z,8.30
2022-09-30T01:21:58.322Z,8.30
2022-09-30T01:24:37.181Z,8.30
2022-09-30T01:27:39.435Z,8.30
2022-09-30T01:30:15.015Z,8.20
2022-09-30T01:32:53.789Z,8.30
2022-09-30T01:35:26.332Z,8.30
2022-09-30T01:38:08.568Z,8.30
2022-09-30T01:40:53.805Z,8.40
2022-09-30T01:43:26.626Z,8.40
2022-09-30T01:45:57.079Z,8.40
2022-09-30T01:48:36.184Z,8.40
2022-09-30T01:51:18.135Z,9.50
2022-09-30T01:53:50.476Z,8.40
2022-09-30T01:56:35.877Z,9.50
2022-09-30T01:59:06.709Z,8.50
2022-09-30T02:01:39.255Z,8.50
2022-09-30T02:04:09.339Z,8.60
2022-09-30T02:06:38.432Z,10.40
2022-09-30T02:09:07.571Z,10.30
2022-09-30T02:11:36.437Z,8.70
2022-09-30T02:14:03.166Z,8.70
2022-09-30T02:16:34.973Z,8.70
2022-09-30T02:19:05.413Z,8.70
2022-09-30T02:21:33.666Z,10.70
2022-09-30T02:24:02.846Z,8.60
2022-09-30T02:26:31.535Z,8.50
2022-09-30T02:29:04.399Z,8.40
2022-09-30T02:31:32.674Z,10.20
2022-09-30T02:34:06.079Z,8.40
2022-09-30T02:36:35.408Z,8.30
2022-09-30T02:39:11.212Z,8.30
2022-09-30T02:41:42.491Z,8.20
2022-09-30T02:44:09.228Z,8.30
2022-09-30T02:46:45.221Z,8.20
2022-09-30T02:49:26.746Z,8.30
2022-09-30T02:51:56.382Z,8.30
2022-09-30T02:54:36.129Z,8.20
2022-09-30T02:57:23.000Z,8.30
2022-09-30T02:59:51.479Z,8.30
2022-09-30T03:02:18.549Z,10.60
2022-09-30T03:04:46.247Z,8.40
2022-09-30T03:07:12.989Z,11.10
2022-09-30T03:09:40.065Z,8.40
2022-09-30T03:12:25.094Z,8.40
2022-09-30T03:15:00.941Z,8.30
2022-09-30T03:17:45.405Z,8.30
2022-09-30T03:20:34.320Z,8.30
2022-09-30T03:23:09.899Z,8.30
2022-09-30T03:25:55.371Z,7.10
2022-09-30T03:28:25.103Z,8.30
2022-09-30T03:31:03.945Z,8.20
2022-09-30T03:33:38.551Z,8.10
2022-09-30T03:36:08.035Z,8.20
2022-09-30T03:38:34.700Z,8.20
2022-09-30T03:41:13.622Z,10.40
2022-09-30T03:43:49.901Z,8.10
2022-09-30T03:46:35.194Z,8.00
2022-09-30T03:49:04.190Z,7.90
2022-09-30T03:51:31.147Z,7.80
2022-09-30T03:53:58.574Z,7.70
2022-09-30T03:56:26.180Z,9.60
2022-09-30T03:58:52.804Z,7.70
2022-09-30T04:01:21.440Z,9.10
2022-09-30T04:03:48.736Z,7.50
2022-09-30T04:06:15.536Z,7.50
2022-09-30T04:08:42.228Z,7.40
2022-09-30T04:11:08.816Z,10.10
2022-09-30T04:13:35.424Z,9.60
2022-09-30T04:16:02.232Z,9.40
2022-09-30T04:18:30.541Z,9.00
2022-09-30T04:20:58.319Z,7.50
2022-09-30T04:23:25.116Z,8.80
2022-09-30T04:25:52.661Z,7.50
2022-09-30T04:28:19.394Z,7.60
2022-09-30T04:30:46.000Z,7.50
2022-09-30T04:33:12.952Z,7.50
2022-09-30T04:35:39.614Z,8.70
2022-09-30T04:38:07.473Z,9.90
2022-09-30T04:40:38.251Z,7.60
2022-09-30T04:43:05.563Z,7.60
2022-09-30T04:45:32.365Z,9.90
2022-09-30T04:47:59.093Z,7.70
2022-09-30T04:50:25.819Z,7.70
2022-09-30T04:52:52.434Z,9.10
2022-09-30T04:55:19.411Z,9.60
2022-09-30T04:57:46.427Z,7.70
2022-09-30T05:00:13.079Z,7.70
2022-09-30T05:02:39.692Z,7.70
2022-09-30T05:05:06.633Z,11.20
2022-09-30T05:07:33.276Z,7.70
2022-09-30T05:09:59.917Z,9.90
2022-09-30T05:12:26.714Z,7.70
2022-09-30T05:14:53.639Z,9.00
2022-09-30T05:17:20.206Z,9.10
2022-09-30T05:19:46.955Z,9.00
2022-09-30T05:22:14.323Z,7.80
2022-09-30T05:24:40.990Z,9.30
2022-09-30T05:27:07.910Z,10.60
2022-09-30T05:29:34.778Z,7.80
2022-09-30T05:32:01.443Z,7.80
2022-09-30T05:34:28.053Z,7.80
2022-09-30T05:36:54.675Z,7.80
2022-09-30T05:39:21.377Z,7.90
2022-09-30T05:41:48.124Z,8.30
2022-09-30T05:44:14.726Z,7.90
2022-09-30T05:46:42.747Z,10.60
2022-09-30T05:49:09.531Z,11.10
2022-09-30T05:51:36.591Z,7.90
2022-09-30T05:54:03.300Z,8.00
2022-09-30T05:56:29.898Z,8.00
2022-09-30T05:58:56.609Z,8.10
2022-09-30T06:01:26.562Z,9.50
2022-09-30T06:03:53.184Z,8.20
2022-09-30T06:06:20.157Z,10.20
2022-09-30T06:08:47.088Z,9.70
2022-09-30T06:11:15.117Z,8.40
2022-09-30T06:13:42.214Z,8.50
2022-09-30T06:16:09.389Z,8.60
2022-09-30T06:18:36.411Z,10.60
2022-09-30T06:21:04.144Z,8.60
2022-09-30T06:23:31.628Z,8.50
2022-09-30T06:25:58.269Z,8.60
2022-09-30T06:28:24.994Z,8.60
2022-09-30T06:30:51.804Z,9.60
2022-09-30T06:33:18.550Z,8.60
2022-09-30T06:35:47.327Z,8.50
2022-09-30T06:38:17.236Z,8.50
2022-09-30T06:40:44.215Z,8.60
2022-09-30T06:43:11.599Z,9.60
2022-09-30T06:45:38.431Z,8.70
2022-09-30T06:48:05.862Z,8.70
2022-09-30T06:50:32.990Z,8.70
2022-09-30T06:53:00.155Z,8.80
2022-09-30T06:55:27.349Z,8.90
2022-09-30T06:57:54.456Z,8.90
2022-09-30T07:00:21.737Z,9.10
2022-09-30T07:02:49.065Z,9.10
2022-09-30T07:05:16.262Z,9.20
2022-09-30T07:07:43.822Z,9.20
2022-09-30T07:10:10.539Z,9.20
2022-09-30T07:12:37.247Z,9.50
2022-09-30T07:15:03.945Z,9.90
2022-09-30T07:17:30.539Z,9.30
2022-09-30T07:19:58.724Z,9.30
2022-09-30T07:22:29.983Z,9.40
2022-09-30T07:25:00.234Z,10.60
2022-09-30T07:27:27.910Z,9.50
2022-09-30T07:30:08.858Z,9.50
2022-09-30T07:32:38.395Z,9.50
2022-09-30T07:35:06.269Z,9.60
2022-09-30T07:37:35.921Z,9.40
2022-09-30T07:40:04.496Z,9.50
2022-09-30T07:42:31.182Z,9.70
2022-09-30T07:44:58.167Z,10.70
2022-09-30T07:47:24.881Z,9.70
2022-09-30T07:49:52.495Z,9.80
2022-09-30T07:52:19.233Z,9.90
2022-09-30T07:54:50.454Z,9.90
2022-09-30T07:57:17.788Z,10.00
2022-09-30T07:59:44.408Z,10.00
2022-09-30T08:02:13.552Z,10.00
2022-09-30T08:04:43.707Z,10.10
2022-09-30T08:07:11.751Z,10.10
2022-09-30T08:09:38.478Z,10.20
2022-09-30T08:12:05.461Z,10.40
2022-09-30T08:14:32.155Z,10.40
2022-09-30T08:17:00.582Z,10.50
2022-09-30T08:19:28.474Z,10.80
2022-09-30T08:21:55.639Z,10.60
2022-09-30T08:24:23.196Z,11.90
2022-09-30T08:26:50.254Z,10.70
2022-09-30T08:29:20.529Z,10.80
2022-09-30T08:31:52.088Z,10.80
2022-09-30T08:34:19.305Z,10.80
2022-09-30T08:36:46.640Z,11.30
2022-09-30T08:39:13.421Z,11.30
2022-09-30T08:41:51.149Z,10.70
2022-09-30T08:44:38.294Z,10.70
2022-09-30T08:47:13.933Z,10.70
2022-09-30T08:49:44.935Z,10.80
2022-09-30T08:52:24.647Z,10.80
2022-09-30T08:55:04.066Z,10.80
2022-09-30T08:57:38.566Z,10.70
2022-09-30T09:00:09.675Z,10.80
2022-09-30T09:02:42.620Z,10.80
2022-09-30T09:05:15.296Z,10.80
2022-09-30T09:07:48.109Z,10.80
2022-09-30T09:10:27.738Z,10.80
2022-09-30T09:13:06.570Z,10.80
2022-09-30T09:15:51.999Z,10.80
2022-09-30T09:18:27.831Z,10.80
2022-09-30T09:20:56.042Z,10.80
2022-09-30T09:23:22.996Z,11.80
2022-09-30T09:25:53.090Z,11.00
2022-09-30T09:28:40.007Z,11.00
2022-09-30T09:31:12.100Z,11.20
2022-09-30T09:33:39.739Z,11.40
2022-09-30T09:36:15.485Z,11.60
2022-09-30T09:38:55.957Z,11.50
2022-09-30T09:41:25.910Z,11.60
2022-09-30T09:43:56.331Z,11.70
2022-09-30T09:46:41.733Z,11.60
2022-09-30T09:49:11.389Z,11.80
2022-09-30T09:51:39.474Z,11.90
2022-09-30T09:54:09.863Z,12.70
2022-09-30T09:56:37.797Z,12.20
2022-09-30T09:59:09.568Z,12.30
2022-09-30T10:01:37.793Z,12.40
2022-09-30T10:04:10.382Z,12.50
2022-09-30T10:06:43.652Z,12.50
2022-09-30T10:09:22.392Z,12.60
2022-09-30T10:11:49.087Z,12.70
2022-09-30T10:14:21.199Z,12.80
2022-09-30T10:16:48.238Z,11.20
2022-09-30T10:19:19.994Z,12.80
2022-09-30T10:21:46.622Z,12.80
2022-09-30T10:24:30.464Z,13.40
2022-09-30T10:26:57.174Z,12.80
2022-09-30T10:29:28.388Z,13.20
2022-09-30T10:31:59.053Z,12.80
2022-09-30T10:34:32.015Z,12.90
2022-09-30T10:36:59.766Z,12.90
2022-09-30T10:39:29.230Z,13.00
2022-09-30T10:42:03.203Z,13.10
2022-09-30T10:44:30.241Z,13.20
2022-09-30T10:47:01.349Z,13.30
2022-09-30T10:49:30.514Z,13.40
2022-09-30T10:51:58.576Z,14.00
2022-09-30T10:54:40.161Z,15.00
2022-09-30T10:57:14.165Z,13.30
2022-09-30T10:59:42.280Z,13.40
2022-09-30T11:02:11.670Z,14.80
2022-09-30T11:04:41.189Z,13.30
2022-09-30T11:07:28.733Z,13.60
2022-09-30T11:10:15.567Z,13.50
2022-09-30T11:12:45.209Z,13.60
2022-09-30T11:15:31.802Z,14.20
2022-09-30T11:18:07.068Z,13.70
2022-09-30T11:20:43.472Z,13.70
2022-09-30T11:23:24.306Z,13.70
2022-09-30T11:25:53.693Z,13.70
2022-09-30T11:28:38.996Z,13.80
2022-09-30T11:31:07.312Z,13.70
2022-09-30T11:33:34.067Z,13.70
2022-09-30T11:36:05.818Z,14.60
2022-09-30T11:38:51.237Z,13.60
2022-09-30T11:41:36.681Z,13.60
2022-09-30T11:44:09.523Z,13.60
2022-09-30T11:46:42.373Z,13.60
2022-09-30T11:49:28.261Z,14.40
2022-09-30T11:51:54.861Z,13.50
2022-09-30T11:54:36.585Z,14.10
2022-09-30T11:57:22.104Z,13.50
2022-09-30T11:59:55.688Z,13.40
2022-09-30T12:02:26.749Z,14.30
2022-09-30T12:04:56.383Z,13.40
2022-09-30T12:07:26.143Z,13.60
2022-09-30T12:09:54.801Z,14.30
2022-09-30T12:12:21.443Z,15.00
2022-09-30T12:14:57.459Z,13.60
2022-09-30T12:17:31.384Z,13.60
2022-09-30T12:20:27.069Z,13.60
2022-09-30T12:23:12.414Z,13.60
2022-09-30T12:25:46.087Z,13.60
2022-09-30T12:28:31.380Z,13.70
2022-09-30T12:31:04.807Z,13.70
2022-09-30T12:33:39.759Z,13.80
2022-09-30T12:36:17.474Z,13.60
2022-09-30T12:38:44.249Z,13.60
2022-09-30T12:41:27.433Z,15.10
2022-09-30T12:43:59.881Z,13.60
2022-09-30T12:46:38.704Z,13.60
2022-09-30T12:49:06.309Z,13.60
2022-09-30T12:51:34.160Z,14.90
2022-09-30T12:54:04.857Z,14.20
2022-09-30T12:56:32.445Z,14.50
2022-09-30T12:59:00.672Z,13.80
2022-09-30T13:01:29.070Z,14.10
2022-09-30T13:03:59.328Z,15.60
2022-09-30T13:06:27.143Z,14.00
2022-09-30T13:08:56.722Z,14.00
2022-09-30T13:11:39.169Z,14.00
2022-09-30T13:14:15.728Z,14.00
2022-09-30T13:16:59.006Z,14.10
2022-09-30T13:19:36.502Z,14.10
2022-09-30T13:22:32.112Z,14.20
2022-09-30T13:25:04.872Z,14.30
2022-09-30T13:27:34.423Z,16.70
2022-09-30T13:30:01.441Z,14.40
2022-09-30T13:32:37.296Z,15.10
2022-09-30T13:35:23.881Z,14.40
2022-09-30T13:38:10.408Z,14.50
2022-09-30T13:41:00.794Z,15.50
2022-09-30T13:43:32.351Z,14.60
2022-09-30T13:46:04.408Z,15.60
2022-09-30T13:48:35.615Z,15.00
2022-09-30T13:51:06.339Z,14.80
2022-09-30T13:53:35.308Z,15.00
2022-09-30T13:56:06.364Z,15.00
2022-09-30T13:58:34.007Z,14.90
2022-09-30T14:01:26.105Z,14.90
2022-09-30T14:03:52.885Z,15.00
2022-09-30T14:06:35.836Z,16.90
2022-09-30T14:09:05.822Z,14.90
2022-09-30T14:11:32.357Z,14.90
2022-09-30T14:14:14.012Z,15.00
2022-09-30T14:16:52.917Z,15.00
2022-09-30T14:19:42.580Z,14.80
2022-09-30T14:22:10.577Z,14.50
2022-09-30T14:24:38.298Z,14.50
2022-09-30T14:27:15.736Z,14.50
2022-09-30T14:29:42.455Z,14.40
2022-09-30T14:32:13.815Z,14.90
2022-09-30T14:34:41.570Z,14.60
2022-09-30T14:37:18.367Z,14.60
2022-09-30T14:39:46.442Z,14.60
2022-09-30T14:42:15.082Z,14.90
2022-09-30T14:44:42.086Z,14.80
2022-09-30T14:47:08.834Z,14.70
2022-09-30T14:49:37.425Z,14.70
2022-09-30T14:52:04.538Z,14.70
2022-09-30T14:54:32.202Z,14.60
2022-09-30T14:57:00.746Z,14.80
2022-09-30T14:59:29.670Z,16.50
2022-09-30T15:02:16.934Z,14.50
2022-09-30T15:04:47.952Z,14.40
2022-09-30T15:07:15.035Z,14.40
2022-09-30T15:09:44.150Z,16.70
2022-09-30T15:12:14.867Z,14.50
2022-09-30T15:14:46.012Z,14.30
2022-09-30T15:17:23.972Z,14.20
2022-09-30T15:19:51.025Z,14.20
2022-09-30T15:22:18.497Z,14.20
2022-09-30T15:24:46.123Z,14.10
2022-09-30T15:27:30.040Z,14.10
2022-09-30T15:30:01.428Z,14.00
2022-09-30T15:32:30.304Z,14.00
2022-09-30T15:34:58.632Z,13.90
2022-09-30T15:37:26.659Z,13.80
2022-09-30T15:40:11.761Z,13.70
2022-09-30T15:42:44.580Z,13.60
2022-09-30T15:45:18.579Z,13.50
2022-09-30T15:48:02.485Z,13.40
2022-09-30T15:50:39.312Z,13.30
2022-09-30T15:53:19.123Z,13.20
2022-09-30T15:55:50.115Z,13.30
2022-09-30T15:58:38.958Z,13.30
2022-09-30T16:01:21.712Z,13.30
2022-09-30T16:03:55.890Z,13.30
2022-09-30T16:06:25.360Z,13.30
2022-09-30T16:09:01.282Z,13.40
2022-09-30T16:11:30.304Z,13.30
2022-09-30T16:13:57.984Z,15.70
2022-09-30T16:16:26.293Z,13.90
2022-09-30T16:18:53.796Z,13.00
2022-09-30T16:21:44.946Z,12.90
2022-09-30T16:24:34.832Z,12.80
2022-09-30T16:27:19.623Z,12.60
2022-09-30T16:29:46.513Z,12.60
2022-09-30T16:32:13.864Z,12.40
2022-09-30T16:34:40.598Z,13.60
2022-09-30T16:37:11.308Z,12.40
2022-09-30T16:39:38.009Z,12.30
2022-09-30T16:42:05.048Z,12.60
2022-09-30T16:44:35.546Z,12.20
2022-09-30T16:47:02.608Z,13.40
2022-09-30T16:49:29.294Z,12.00
2022-09-30T16:51:55.890Z,13.40
2022-09-30T16:54:22.638Z,11.90
2022-09-30T16:56:49.431Z,11.90
2022-09-30T16:59:17.161Z,11.80
2022-09-30T17:01:44.028Z,11.70
2022-09-30T17:04:14.090Z,11.60
2022-09-30T17:06:43.768Z,11.80
2022-09-30T17:09:10.421Z,11.50
2022-09-30T17:11:38.040Z,11.40
2022-09-30T17:14:04.845Z,11.50
2022-09-30T17:16:31.957Z,11.20
2022-09-30T17:18:59.050Z,11.00
2022-09-30T17:21:26.284Z,11.00
2022-09-30T17:23:54.106Z,10.90
2022-09-30T17:26:20.790Z,10.80
2022-09-30T17:28:47.570Z,10.60
2022-09-30T17:31:14.926Z,10.50
2022-09-30T17:33:41.731Z,10.50
2022-09-30T17:36:10.396Z,10.40
2022-09-30T17:38:37.582Z,10.50
2022-09-30T17:41:23.527Z,10.30
2022-09-30T17:43:50.481Z,10.20
2022-09-30T17:46:23.428Z,10.00
2022-09-30T17:48:51.186Z,9.90
2022-09-30T17:51:18.149Z,10.50
2022-09-30T17:53:45.232Z,9.80
2022-09-30T17:56:16.993Z,9.70
2022-09-30T17:58:47.358Z,9.50
2022-09-30T18:01:14.530Z,9.50
2022-09-30T18:03:41.210Z,9.40
2022-09-30T18:06:07.943Z,9.30
2022-09-30T18:08:34.911Z,9.30
2022-09-30T18:11:01.533Z,9.20
2022-09-30T18:13:28.654Z,9.10
2022-09-30T18:15:55.723Z,9.00
2022-09-30T18:18:22.315Z,8.90
2022-09-30T18:20:49.736Z,8.80
2022-09-30T18:23:18.843Z,8.80
2022-09-30T18:25:45.928Z,8.80
2022-09-30T18:28:14.075Z,8.90
2022-09-30T18:30:40.832Z,8.90
2022-09-30T18:33:07.841Z,9.00
2022-09-30T18:35:36.079Z,9.00
2022-09-30T18:38:02.933Z,9.10
2022-09-30T18:40:30.237Z,9.10
2022-09-30T18:42:58.638Z,9.20
2022-09-30T18:45:25.959Z,9.10
2022-09-30T18:47:57.049Z,9.10
2022-09-30T18:50:24.838Z,9.20
2022-09-30T18:52:52.324Z,9.20
2022-09-30T18:55:19.388Z,9.30
2022-09-30T18:57:51.449Z,10.40
2022-09-30T19:00:18.109Z,9.90
2022-09-30T19:02:44.849Z,9.30
2022-09-30T19:05:12.886Z,9.30
2022-09-30T19:07:39.644Z,9.30
2022-09-30T19:10:07.124Z,9.30
2022-09-30T19:12:35.804Z,9.30
2022-09-30T19:15:10.076Z,9.20
2022-09-30T19:17:37.435Z,9.20
2022-09-30T19:20:05.748Z,9.20
2022-09-30T19:22:37.226Z,9.10
2022-09-30T19:25:04.649Z,9.00
2022-09-30T19:27:31.871Z,9.00
2022-09-30T19:29:59.601Z,9.00
2022-09-30T19:32:28.911Z,9.00
2022-09-30T19:35:05.410Z,10.00
2022-09-30T19:37:32.449Z,9.10
2022-09-30T19:40:02.441Z,10.10
2022-09-30T19:42:39.395Z,9.10
2022-09-30T19:45:06.724Z,9.00
2022-09-30T19:47:34.438Z,9.00
2022-09-30T19:50:01.237Z,9.10
2022-09-30T19:52:28.027Z,9.10
2022-09-30T19:54:57.744Z,10.40
2022-09-30T19:57:25.764Z,9.10
2022-09-30T19:59:53.307Z,9.10
2022-09-30T20:02:21.416Z,9.30
2022-09-30T20:04:48.195Z,10.90
2022-09-30T20:07:14.921Z,8.90
2022-09-30T20:09:42.736Z,10.00
2022-09-30T20:12:10.160Z,9.20
2022-09-30T20:14:55.505Z,8.70
2022-09-30T20:17:22.537Z,8.80
2022-09-30T20:20:09.216Z,9.50
2022-09-30T20:22:35.967Z,8.70
2022-09-30T20:25:02.775Z,8.70
2022-09-30T20:27:32.884Z,8.80
2022-09-30T20:29:59.800Z,8.70
2022-09-30T20:32:30.644Z,8.70
2022-09-30T20:34:58.324Z,8.70
2022-09-30T20:37:25.116Z,8.70
2022-09-30T20:39:51.727Z,8.60
2022-09-30T20:42:18.384Z,8.60
2022-09-30T20:44:45.314Z,8.50
2022-09-30T20:47:12.006Z,8.40
2022-09-30T20:49:38.604Z,8.50
2022-09-30T20:52:06.013Z,9.80
2022-09-30T20:54:35.422Z,8.50
2022-09-30T20:57:07.106Z,8.40
2022-09-30T20:59:34.294Z,8.30
2022-09-30T21:02:01.004Z,8.20
2022-09-30T21:04:27.665Z,8.10
2022-09-30T21:06:54.876Z,8.10
2022-09-30T21:09:21.479Z,8.00
2022-09-30T21:11:48.032Z,7.90
2022-09-30T21:14:17.473Z,8.00
2022-09-30T21:16:44.175Z,9.20
2022-09-30T21:19:10.931Z,8.00
2022-09-30T21:21:37.508Z,7.80
2022-09-30T21:24:04.178Z,7.80
2022-09-30T21:26:31.196Z,7.70
2022-09-30T21:28:57.941Z,7.50
2022-09-30T21:31:26.759Z,7.40
2022-09-30T21:33:55.212Z,7.40
2022-09-30T21:36:22.195Z,7.40
2022-09-30T21:38:49.706Z,7.40
2022-09-30T21:41:16.884Z,7.40
2022-09-30T21:43:44.168Z,7.70
2022-09-30T21:46:12.172Z,8.70
2022-09-30T21:48:38.857Z,7.50
2022-09-30T21:51:06.183Z,7.50
2022-09-30T21:53:33.119Z,7.40
2022-09-30T21:56:01.117Z,7.30
2022-09-30T21:58:28.867Z,7.30
2022-09-30T22:00:59.990Z,7.20
2022-09-30T22:03:28.047Z,7.20
2022-09-30T22:05:55.165Z,7.20
2022-09-30T22:08:22.221Z,7.30
2022-09-30T22:10:51.085Z,7.30
2022-09-30T22:13:17.925Z,7.30
2022-09-30T22:15:45.055Z,7.10
2022-09-30T22:18:12.459Z,7.10
2022-09-30T22:20:40.548Z,7.10
2022-09-30T22:23:07.172Z,7.00
2022-09-30T22:25:33.833Z,7.10
2022-09-30T22:28:00.633Z,7.20
2022-09-30T22:30:28.044Z,7.30
2022-09-30T22:33:13.123Z,7.30
2022-09-30T22:35:58.513Z,7.30
2022-09-30T22:38:25.375Z,7.30
2022-09-30T22:40:55.770Z,7.20
2022-09-30T22:43:23.687Z,7.20
2022-09-30T22:46:02.972Z,7.20
2022-09-30T22:48:30.596Z,7.20
2022-09-30T22:50:57.500Z,8.30
2022-09-30T22:53:24.701Z,7.20
2022-09-30T22:55:52.697Z,7.10
2022-09-30T22:58:19.750Z,7.20
2022-09-30T23:00:56.345Z,7.70
2022-09-30T23:03:23.372Z,7.10
2022-09-30T23:05:50.224Z,7.10
2022-09-30T23:08:17.334Z,7.10
2022-09-30T23:10:50.769Z,7.10
2022-09-30T23:13:20.500Z,7.00
2022-09-30T23:15:47.872Z,7.00
2022-09-30T23:18:17.408Z,6.90
2022-09-30T23:20:53.142Z,6.80
2022-09-30T23:23:20.078Z,8.90
2022-09-30T23:25:46.715Z,6.90
2022-09-30T23:28:13.897Z,6.80
2022-09-30T23:30:40.677Z,6.80
2022-09-30T23:33:09.222Z,6.70
2022-09-30T23:35:35.773Z,6.70
2022-09-30T23:38:02.406Z,6.60
2022-09-30T23:40:29.016Z,6.60
2022-09-30T23:42:56.560Z,6.60
2022-09-30T23:45:23.190Z,6.60
2022-09-30T23:47:49.804Z,6.60
2022-09-30T23:50:16.564Z,6.60
2022-09-30T23:52:44.178Z,6.70
2022-09-30T23:55:11.643Z,6.70
2022-09-30T23:57:38.342Z,6.70
